Time;durP1;ratioP1;P1;durP2;ratioP2;P2;SDS_P1;SDS_P2;PMS_P1;PMS_P2;Temp;Humidity;BMP_temperature;BMP_pressure;BME280_temperature;BME280_humidity;BME280_pressure;Samples;Min_cycle;Max_cycle;Signal;HPM_P1;HPM_P2
2023/05/10 00:00:15;;;;;;;10.45;5.82;;;;;;;;;;2089173;28;20142;-66
2023/05/10 00:01:34;;;;;;;7.70;5.10;;;;;;;;;;2087785;28;20151;-65
2023/05/10 00:02:53;;;;;;;8.68;5.13;;;;;;;;;;2085927;28;20385;-65
2023/05/10 00:04:12;;;;;;;6.75;5.35;;;;;;;;;;2082985;28;20076;-65
2023/05/10 00:05:32;;;;;;;9.55;5.28;;;;;;;;;;2088110;28;20056;-65
2023/05/10 00:06:51;;;;;;;9.35;5.03;;;;;;;;;;2088603;28;20501;-65
2023/05/10 00:08:10;;;;;;;5.38;4.75;;;;;;;;;;2089967;28;20032;-65
2023/05/10 00:09:29;;;;;;;6.68;5.10;;;;;;;;;;2089473;28;20040;-65
2023/05/10 00:10:48;;;;;;;9.25;5.00;;;;;;;;;;2088180;28;20017;-65
2023/05/10 00:12:07;;;;;;;9.38;5.00;;;;;;;;;;2091996;28;20040;-65
2023/05/10 00:13:26;;;;;;;6.32;4.70;;;;;;;;;;2092402;28;20381;-65
2023/05/10 00:14:45;;;;;;;7.88;4.75;;;;;;;;;;2087280;28;20021;-65
2023/05/10 00:16:04;;;;;;;7.90;5.43;;;;;;;;;;2090414;28;20103;-65
2023/05/10 00:17:24;;;;;;;5.93;5.03;;;;;;;;;;2089159;28;20025;-65
2023/05/10 00:18:42;;;;;;;7.57;5.70;;;;;;;;;;2092027;28;20037;-65
2023/05/10 00:20:02;;;;;;;7.85;5.20;;;;;;;;;;2088177;28;20016;-66
2023/05/10 00:21:20;;;;;;;7.40;5.70;;;;;;;;;;2085831;28;20025;-65
2023/05/10 00:22:39;;;;;;;10.10;4.43;;;;;;;;;;2091372;28;20025;-66
2023/05/10 00:23:59;;;;;;;5.25;4.68;;;;;;;;;;2093986;28;20032;-65
2023/05/10 00:25:18;;;;;;;9.13;5.38;;;;;;;;;;2092467;28;20020;-66
2023/05/10 00:26:36;;;;;;;10.13;4.75;;;;;;;;;;2088816;28;20478;-65
2023/05/10 00:27:57;;;;;;;6.30;5.25;;;;;;;;;;2085945;28;20029;-66
2023/05/10 00:29:16;;;;;;;9.52;5.70;;;;;;;;;;2088427;28;20025;-65
2023/05/10 00:30:34;;;;;;;6.68;4.97;;;;;;;;;;2093007;28;21177;-66
2023/05/10 00:31:53;;;;;;;9.07;5.50;;;;;;;;;;2089974;28;20025;-66
2023/05/10 00:33:13;;;;;;;6.50;5.10;;;;;;;;;;2090224;28;20021;-66
2023/05/10 00:34:32;;;;;;;8.70;5.50;;;;;;;;;;2088183;28;20029;-65
2023/05/10 00:35:50;;;;;;;6.28;4.97;;;;;;;;;;2092559;28;20024;-65
2023/05/10 00:37:09;;;;;;;8.70;4.90;;;;;;;;;;2089774;28;20017;-65
2023/05/10 00:38:28;;;;;;;6.43;5.15;;;;;;;;;;2090679;28;20033;-65
2023/05/10 00:39:47;;;;;;;6.93;5.00;;;;;;;;;;2087313;28;20029;-66
2023/05/10 00:41:06;;;;;;;6.95;5.43;;;;;;;;;;2090251;28;21111;-65
2023/05/10 00:42:25;;;;;;;7.25;4.65;;;;;;;;;;2091606;28;20454;-65
2023/05/10 00:43:44;;;;;;;8.48;5.35;;;;;;;;;;2091860;28;20036;-66
2023/05/10 00:45:03;;;;;;;9.43;5.00;;;;;;;;;;2093746;28;20032;-65
2023/05/10 00:46:22;;;;;;;10.63;5.15;;;;;;;;;;2091738;28;20036;-65
2023/05/10 00:47:41;;;;;;;5.32;4.85;;;;;;;;;;2089595;28;20033;-65
2023/05/10 00:49:00;;;;;;;9.32;5.97;;;;;;;;;;2090940;28;20132;-66
2023/05/10 00:50:19;;;;;;;11.77;5.90;;;;;;;;;;2091575;28;20028;-65
2023/05/10 00:51:38;;;;;;;12.73;5.00;;;;;;;;;;2086118;28;20429;-65
2023/05/10 00:52:57;;;;;;;7.50;5.85;;;;;;;;;;2086493;28;20037;-66
2023/05/10 00:54:17;;;;;;;10.82;6.03;;;;;;;;;;2089631;28;20029;-65
2023/05/10 00:55:36;;;;;;;6.40;4.75;;;;;;;;;;2089601;28;20436;-65
2023/05/10 00:56:56;;;;;;;9.68;5.47;;;;;;;;;;2089078;28;20028;-65
2023/05/10 00:58:15;;;;;;;5.63;5.10;;;;;;;;;;2088981;28;20036;-66
2023/05/10 00:59:34;;;;;;;7.82;5.60;;;;;;;;;;2088021;28;20071;-65
2023/05/10 01:00:54;;;;;;;7.53;5.40;;;;;;;;;;2089648;28;20510;-66
2023/05/10 01:02:14;;;;;;;6.38;5.03;;;;;;;;;;2091169;28;20037;-66
2023/05/10 01:03:33;;;;;;;7.65;4.93;;;;;;;;;;2086461;28;20036;-65
2023/05/10 01:04:52;;;;;;;6.60;5.30;;;;;;;;;;2087072;28;20048;-65
2023/05/10 01:06:11;;;;;;;6.95;5.20;;;;;;;;;;2091477;28;20795;-65
2023/05/10 01:07:30;;;;;;;11.00;6.13;;;;;;;;;;2089300;28;20040;-65
2023/05/10 01:08:49;;;;;;;6.25;4.82;;;;;;;;;;2086903;28;20036;-65
2023/05/10 01:10:08;;;;;;;6.50;5.35;;;;;;;;;;2092587;28;20103;-65
2023/05/10 01:11:28;;;;;;;7.22;5.50;;;;;;;;;;2087806;28;20064;-65
2023/05/10 01:12:47;;;;;;;6.68;5.10;;;;;;;;;;2089604;28;20056;-65
2023/05/10 01:14:06;;;;;;;7.93;5.15;;;;;;;;;;2091619;28;20033;-65
2023/05/10 01:15:26;;;;;;;8.82;5.40;;;;;;;;;;2086187;28;20116;-66
2023/05/10 01:16:45;;;;;;;6.63;5.45;;;;;;;;;;2088146;28;20017;-65
2023/05/10 01:18:05;;;;;;;6.50;5.50;;;;;;;;;;2091336;28;20048;-65
2023/05/10 01:19:25;;;;;;;5.95;5.38;;;;;;;;;;2090517;28;20136;-66
2023/05/10 01:20:47;;;;;;;6.70;5.40;;;;;;;;;;2084561;28;20422;-65
2023/05/10 01:22:13;;;;;;;8.80;5.22;;;;;;;;;;2088309;28;20028;-66
2023/05/10 01:23:52;;;;;;;11.00;5.85;;;;;;;;;;2087406;28;20029;-65
2023/05/10 01:25:14;;;;;;;6.40;5.57;;;;;;;;;;2084512;28;20076;-65
2023/05/10 01:26:36;;;;;;;5.88;5.38;;;;;;;;;;2089082;28;20478;-65
2023/05/10 01:27:55;;;;;;;6.93;4.90;;;;;;;;;;2093258;28;20052;-66
2023/05/10 01:29:33;;;;;;;6.45;5.10;;;;;;;;;;2088407;28;20103;-65
2023/05/10 01:30:52;;;;;;;6.80;5.68;;;;;;;;;;2086769;28;20028;-66
2023/05/10 01:32:14;;;;;;;13.18;5.97;;;;;;;;;;2088865;28;20037;-65
2023/05/10 01:33:39;;;;;;;9.18;5.82;;;;;;;;;;2088388;28;20441;-65
2023/05/10 01:35:33;;;;;;;9.10;5.30;;;;;;;;;;2087701;28;20497;-66
2023/05/10 01:37:00;;;;;;;6.45;4.78;;;;;;;;;;2062782;28;20500;-66
2023/05/10 01:38:39;;;;;;;7.03;5.47;;;;;;;;;;2065411;28;20057;-65
2023/05/10 01:40:01;;;;;;;9.85;5.78;;;;;;;;;;2092398;28;20032;-66
2023/05/10 01:41:29;;;;;;;5.65;5.10;;;;;;;;;;2091658;28;20072;-66
2023/05/10 01:42:53;;;;;;;9.32;5.30;;;;;;;;;;2090149;28;20021;-66
2023/05/10 01:44:31;;;;;;;10.82;5.88;;;;;;;;;;2089598;28;20060;-66
2023/05/10 01:45:50;;;;;;;11.52;5.05;;;;;;;;;;2088800;28;20029;-66
2023/05/10 01:47:10;;;;;;;6.65;5.72;;;;;;;;;;2087726;28;20528;-66
2023/05/10 01:48:30;;;;;;;7.05;5.40;;;;;;;;;;2091173;28;20123;-66
2023/05/10 01:49:50;;;;;;;7.95;5.25;;;;;;;;;;2090922;28;20035;-66
2023/05/10 01:51:09;;;;;;;6.03;4.70;;;;;;;;;;2085260;28;20029;-66
2023/05/10 01:52:40;;;;;;;6.78;5.75;;;;;;;;;;2091158;28;20509;-66
2023/05/10 01:54:01;;;;;;;6.55;5.38;;;;;;;;;;2090137;28;20115;-65
2023/05/10 01:55:22;;;;;;;8.35;5.65;;;;;;;;;;2088598;28;20491;-64
2023/05/10 01:56:41;;;;;;;13.15;6.20;;;;;;;;;;2088955;28;20044;-64
2023/05/10 01:58:05;;;;;;;6.78;5.88;;;;;;;;;;2090810;28;20502;-64
2023/05/10 01:59:26;;;;;;;8.88;5.90;;;;;;;;;;2088190;28;20025;-64
2023/05/10 02:00:47;;;;;;;10.18;6.03;;;;;;;;;;2084510;28;20471;-65
2023/05/10 02:02:06;;;;;;;6.88;6.20;;;;;;;;;;2091919;28;20024;-65
2023/05/10 02:03:27;;;;;;;6.72;6.05;;;;;;;;;;2087456;28;20138;-65
2023/05/10 02:04:46;;;;;;;6.65;5.50;;;;;;;;;;2086584;28;20033;-65
2023/05/10 02:06:05;;;;;;;10.23;6.15;;;;;;;;;;2089352;28;20040;-64
2023/05/10 02:07:25;;;;;;;7.43;5.03;;;;;;;;;;2089436;28;20099;-65
2023/05/10 02:08:45;;;;;;;8.93;5.10;;;;;;;;;;2089407;28;20409;-65
2023/05/10 02:10:06;;;;;;;8.70;5.78;;;;;;;;;;2092566;28;20033;-65
2023/05/10 02:11:26;;;;;;;9.15;5.40;;;;;;;;;;2095777;28;20481;-65
2023/05/10 02:12:47;;;;;;;10.20;6.10;;;;;;;;;;2093034;28;20033;-65
2023/05/10 02:14:07;;;;;;;8.50;5.68;;;;;;;;;;2090825;28;21337;-65
2023/05/10 02:15:27;;;;;;;9.13;5.32;;;;;;;;;;2088991;28;20029;-65
2023/05/10 02:16:47;;;;;;;6.50;5.75;;;;;;;;;;2089135;28;20040;-65
2023/05/10 02:18:06;;;;;;;6.93;5.82;;;;;;;;;;2087489;28;20511;-65
2023/05/10 02:19:28;;;;;;;7.18;5.63;;;;;;;;;;2088397;28;20517;-65
2023/05/10 02:20:47;;;;;;;11.18;5.97;;;;;;;;;;2086579;28;20731;-65
2023/05/10 02:22:08;;;;;;;7.75;5.50;;;;;;;;;;2091068;28;20509;-65
2023/05/10 02:23:28;;;;;;;8.00;5.78;;;;;;;;;;2088165;28;20044;-65
2023/05/10 02:24:47;;;;;;;12.65;5.90;;;;;;;;;;2088650;28;20021;-65
2023/05/10 02:26:07;;;;;;;7.45;5.72;;;;;;;;;;2090603;28;20489;-66
2023/05/10 02:27:27;;;;;;;8.55;5.60;;;;;;;;;;2089052;28;20032;-65
2023/05/10 02:28:47;;;;;;;7.35;5.90;;;;;;;;;;2085514;28;20037;-66
2023/05/10 02:30:07;;;;;;;10.18;6.32;;;;;;;;;;2086467;28;20036;-65
2023/05/10 02:31:26;;;;;;;8.35;5.57;;;;;;;;;;2089140;28;20056;-65
2023/05/10 02:32:46;;;;;;;9.13;6.53;;;;;;;;;;2087604;28;20025;-65
2023/05/10 02:34:06;;;;;;;9.65;6.28;;;;;;;;;;2089877;28;20489;-65
2023/05/10 02:35:26;;;;;;;8.05;6.22;;;;;;;;;;2090476;28;20033;-66
2023/05/10 02:36:46;;;;;;;9.23;6.05;;;;;;;;;;2094153;28;20024;-65
2023/05/10 02:38:06;;;;;;;7.95;5.85;;;;;;;;;;2094979;28;20289;-65
2023/05/10 02:39:26;;;;;;;7.80;6.05;;;;;;;;;;2091037;28;20762;-66
2023/05/10 02:40:46;;;;;;;10.13;5.72;;;;;;;;;;2091820;28;20037;-65
2023/05/10 02:42:05;;;;;;;10.80;5.93;;;;;;;;;;2093300;28;20032;-65
2023/05/10 02:43:24;;;;;;;11.95;6.00;;;;;;;;;;2093012;28;20024;-66
2023/05/10 02:44:45;;;;;;;6.45;5.85;;;;;;;;;;2089812;28;20029;-65
2023/05/10 02:46:04;;;;;;;8.32;5.25;;;;;;;;;;2089030;28;20128;-65
2023/05/10 02:47:23;;;;;;;7.50;5.78;;;;;;;;;;2091827;28;20409;-65
2023/05/10 02:48:42;;;;;;;7.75;6.05;;;;;;;;;;2090836;28;20033;-64
2023/05/10 02:50:01;;;;;;;8.55;5.90;;;;;;;;;;2094432;28;20461;-64
2023/05/10 02:51:24;;;;;;;8.25;6.28;;;;;;;;;;2091725;28;20037;-65
2023/05/10 02:52:45;;;;;;;10.43;6.72;;;;;;;;;;2092123;28;20494;-65
2023/05/10 02:54:09;;;;;;;9.00;6.00;;;;;;;;;;2094585;28;20037;-65
2023/05/10 02:55:32;;;;;;;8.25;5.88;;;;;;;;;;2093219;28;20111;-65
2023/05/10 02:56:53;;;;;;;10.25;6.40;;;;;;;;;;2089229;28;20108;-65
2023/05/10 02:58:12;;;;;;;7.80;5.88;;;;;;;;;;2090866;28;20032;-65
2023/05/10 02:59:32;;;;;;;8.85;6.15;;;;;;;;;;2093094;28;20032;-65
2023/05/10 03:00:51;;;;;;;8.07;6.00;;;;;;;;;;2090859;28;20493;-65
2023/05/10 03:02:11;;;;;;;10.85;6.00;;;;;;;;;;2093945;28;20041;-65
2023/05/10 03:03:30;;;;;;;10.30;6.38;;;;;;;;;;2087551;28;20460;-65
2023/05/10 03:04:49;;;;;;;7.10;5.47;;;;;;;;;;2091603;28;20440;-65
2023/05/10 03:06:08;;;;;;;10.85;6.22;;;;;;;;;;2090869;28;20025;-65
2023/05/10 03:07:27;;;;;;;10.82;5.90;;;;;;;;;;2088439;28;20028;-65
2023/05/10 03:08:46;;;;;;;9.25;6.50;;;;;;;;;;2092307;28;20575;-66
2023/05/10 03:10:05;;;;;;;12.00;6.93;;;;;;;;;;2093957;28;20033;-65
2023/05/10 03:11:30;;;;;;;11.32;6.28;;;;;;;;;;2092591;28;20052;-65
2023/05/10 03:13:02;;;;;;;10.40;6.32;;;;;;;;;;2088488;28;20484;-65
2023/05/10 03:14:26;;;;;;;10.50;6.45;;;;;;;;;;2088968;28;20388;-65
2023/05/10 03:16:04;;;;;;;8.35;5.57;;;;;;;;;;2087068;28;20021;-66
2023/05/10 03:17:22;;;;;;;10.65;6.05;;;;;;;;;;2099369;28;20052;-65
2023/05/10 03:18:50;;;;;;;14.55;6.13;;;;;;;;;;2092834;28;20402;-65
2023/05/10 03:20:11;;;;;;;12.70;5.95;;;;;;;;;;2091428;28;20029;-64
2023/05/10 03:21:31;;;;;;;15.57;5.72;;;;;;;;;;2092113;28;20493;-65
2023/05/10 03:22:52;;;;;;;14.90;6.25;;;;;;;;;;2090502;28;20024;-65
2023/05/10 03:24:12;;;;;;;11.15;6.68;;;;;;;;;;2097730;28;20025;-65
2023/05/10 03:25:31;;;;;;;11.68;5.97;;;;;;;;;;2090213;28;20029;-66
2023/05/10 03:26:52;;;;;;;13.82;6.70;;;;;;;;;;2089646;28;20032;-65
2023/05/10 03:28:13;;;;;;;11.13;6.90;;;;;;;;;;2087633;28;20013;-65
2023/05/10 03:29:32;;;;;;;16.80;7.03;;;;;;;;;;2088456;28;20024;-64
2023/05/10 03:30:52;;;;;;;19.17;5.85;;;;;;;;;;2089240;28;20106;-65
2023/05/10 03:32:11;;;;;;;14.20;6.07;;;;;;;;;;2094895;28;20036;-65
2023/05/10 03:33:30;;;;;;;10.68;6.15;;;;;;;;;;2089075;28;20516;-65
2023/05/10 03:34:49;;;;;;;16.05;6.70;;;;;;;;;;2089183;28;20033;-64
2023/05/10 03:36:08;;;;;;;13.57;6.18;;;;;;;;;;2092418;28;20024;-65
2023/05/10 03:37:27;;;;;;;12.20;6.25;;;;;;;;;;2093439;28;20020;-65
2023/05/10 03:38:46;;;;;;;12.52;6.53;;;;;;;;;;2090211;28;20057;-65
2023/05/10 03:40:06;;;;;;;11.88;6.68;;;;;;;;;;2093133;28;20948;-65
2023/05/10 03:41:25;;;;;;;14.38;6.40;;;;;;;;;;2087974;28;20037;-66
2023/05/10 03:42:45;;;;;;;12.05;7.00;;;;;;;;;;2089357;28;20033;-65
2023/05/10 03:44:04;;;;;;;14.70;5.93;;;;;;;;;;2091601;28;20382;-65
2023/05/10 03:45:23;;;;;;;11.88;6.15;;;;;;;;;;2086947;28;20059;-65
2023/05/10 03:46:42;;;;;;;17.20;6.45;;;;;;;;;;2089406;28;20516;-65
2023/05/10 03:48:01;;;;;;;13.50;6.70;;;;;;;;;;2093189;28;20025;-65
2023/05/10 03:49:19;;;;;;;12.35;6.13;;;;;;;;;;2088726;28;20155;-65
2023/05/10 03:50:38;;;;;;;13.30;6.38;;;;;;;;;;2089210;28;20072;-66
2023/05/10 03:51:57;;;;;;;14.65;6.72;;;;;;;;;;2089186;28;20029;-65
2023/05/10 03:53:16;;;;;;;16.25;6.72;;;;;;;;;;2088214;28;20028;-65
2023/05/10 03:54:35;;;;;;;11.77;6.50;;;;;;;;;;2094293;28;20045;-65
2023/05/10 03:55:54;;;;;;;11.70;6.85;;;;;;;;;;2092882;28;20032;-65
2023/05/10 03:57:13;;;;;;;15.07;6.28;;;;;;;;;;2087791;28;20017;-66
2023/05/10 03:58:32;;;;;;;14.98;6.78;;;;;;;;;;2091110;28;20029;-66
2023/05/10 03:59:51;;;;;;;10.73;6.43;;;;;;;;;;2089203;28;20029;-66
2023/05/10 04:01:11;;;;;;;11.32;5.85;;;;;;;;;;2089734;28;20033;-66
2023/05/10 04:02:30;;;;;;;9.93;6.25;;;;;;;;;;2090335;28;20505;-66
2023/05/10 04:03:49;;;;;;;13.45;6.47;;;;;;;;;;2087720;28;20033;-65
2023/05/10 04:05:08;;;;;;;11.18;5.72;;;;;;;;;;2090190;28;20766;-66
2023/05/10 04:06:27;;;;;;;12.90;6.15;;;;;;;;;;2090602;28;20040;-66
2023/05/10 04:07:46;;;;;;;9.10;6.10;;;;;;;;;;2092123;28;20028;-66
2023/05/10 04:09:05;;;;;;;31.02;5.90;;;;;;;;;;2088134;28;20029;-65
2023/05/10 04:10:24;;;;;;;10.00;5.85;;;;;;;;;;2090870;28;20033;-65
2023/05/10 04:11:43;;;;;;;14.07;6.05;;;;;;;;;;2089341;28;20428;-65
2023/05/10 04:13:02;;;;;;;11.23;6.07;;;;;;;;;;2091573;28;20049;-65
2023/05/10 04:14:21;;;;;;;12.52;6.22;;;;;;;;;;2091766;28;20033;-68
2023/05/10 04:15:40;;;;;;;11.10;5.45;;;;;;;;;;2087660;28;20050;-66
2023/05/10 04:16:59;;;;;;;13.25;5.80;;;;;;;;;;2090141;28;20486;-66
2023/05/10 04:18:17;;;;;;;9.90;6.00;;;;;;;;;;2090525;28;20025;-65
2023/05/10 04:19:36;;;;;;;13.15;5.32;;;;;;;;;;2088733;28;20032;-66
2023/05/10 04:20:55;;;;;;;13.93;6.32;;;;;;;;;;2089467;28;20036;-65
2023/05/10 04:22:14;;;;;;;16.17;6.70;;;;;;;;;;2086084;28;20041;-66
2023/05/10 04:23:33;;;;;;;12.00;5.30;;;;;;;;;;2089029;28;20085;-66
2023/05/10 04:24:52;;;;;;;8.02;5.30;;;;;;;;;;2090478;28;20029;-66
2023/05/10 04:26:11;;;;;;;8.13;5.75;;;;;;;;;;2087013;28;20037;-66
2023/05/10 04:27:30;;;;;;;16.75;5.85;;;;;;;;;;2088330;28;20033;-66
2023/05/10 04:28:49;;;;;;;9.82;5.50;;;;;;;;;;2090429;28;20032;-66
2023/05/10 04:30:09;;;;;;;10.93;5.65;;;;;;;;;;2091862;28;20017;-65
2023/05/10 04:31:28;;;;;;;6.28;5.10;;;;;;;;;;2090930;28;20032;-66
2023/05/10 04:32:47;;;;;;;13.80;5.90;;;;;;;;;;2089691;28;20564;-67
2023/05/10 04:34:06;;;;;;;10.25;5.30;;;;;;;;;;2091312;28;20021;-68
2023/05/10 04:35:26;;;;;;;15.05;5.85;;;;;;;;;;2088411;28;20024;-66
2023/05/10 04:36:45;;;;;;;9.00;4.97;;;;;;;;;;2090508;28;20021;-66
2023/05/10 04:38:03;;;;;;;7.43;5.22;;;;;;;;;;2091695;28;20111;-66
2023/05/10 04:39:22;;;;;;;14.82;5.38;;;;;;;;;;2089044;28;20036;-66
2023/05/10 04:40:41;;;;;;;9.02;4.68;;;;;;;;;;2091610;28;20033;-65
2023/05/10 04:42:02;;;;;;;15.05;5.30;;;;;;;;;;2093966;28;20943;-66
2023/05/10 04:43:21;;;;;;;19.70;5.50;;;;;;;;;;2091052;28;20029;-66
2023/05/10 04:44:40;;;;;;;16.90;5.57;;;;;;;;;;2091180;28;20029;-66
2023/05/10 04:45:59;;;;;;;12.40;5.20;;;;;;;;;;2091561;28;20111;-66
2023/05/10 04:47:18;;;;;;;10.25;5.03;;;;;;;;;;2090969;28;20115;-65
2023/05/10 04:48:37;;;;;;;10.40;4.93;;;;;;;;;;2090356;28;20059;-65
2023/05/10 04:49:56;;;;;;;10.88;5.28;;;;;;;;;;2093461;28;20041;-65
2023/05/10 04:51:15;;;;;;;13.38;4.60;;;;;;;;;;2092191;28;20060;-66
2023/05/10 04:52:34;;;;;;;14.98;4.53;;;;;;;;;;2088920;28;20067;-65
2023/05/10 04:53:53;;;;;;;12.88;5.20;;;;;;;;;;2093114;28;20036;-65
2023/05/10 04:55:12;;;;;;;10.77;4.47;;;;;;;;;;2089351;28;20024;-65
2023/05/10 04:56:31;;;;;;;6.78;4.50;;;;;;;;;;2091324;28;20115;-65
2023/05/10 04:57:50;;;;;;;9.90;4.57;;;;;;;;;;2090975;28;20033;-66
2023/05/10 04:59:09;;;;;;;6.53;4.68;;;;;;;;;;2091519;28;20477;-65
2023/05/10 05:00:28;;;;;;;10.50;4.72;;;;;;;;;;2091940;28;20041;-66
2023/05/10 05:01:47;;;;;;;7.15;4.60;;;;;;;;;;2090594;28;20040;-66
2023/05/10 05:03:06;;;;;;;8.77;4.68;;;;;;;;;;2090968;28;20037;-66
2023/05/10 05:04:25;;;;;;;14.85;4.82;;;;;;;;;;2092427;28;20466;-65
2023/05/10 05:05:44;;;;;;;10.35;5.25;;;;;;;;;;2093311;28;20502;-65
2023/05/10 05:07:03;;;;;;;6.22;4.70;;;;;;;;;;2091094;28;20040;-65
2023/05/10 05:08:23;;;;;;;6.82;4.10;;;;;;;;;;2092469;28;20490;-65
2023/05/10 05:09:42;;;;;;;6.55;4.20;;;;;;;;;;2092208;28;20025;-66
2023/05/10 05:11:01;;;;;;;8.80;4.55;;;;;;;;;;2088802;28;20026;-66
2023/05/10 05:12:20;;;;;;;11.20;4.53;;;;;;;;;;2094026;28;20410;-66
2023/05/10 05:13:39;;;;;;;7.50;4.28;;;;;;;;;;2091303;28;20041;-66
2023/05/10 05:14:58;;;;;;;9.27;4.50;;;;;;;;;;2089146;28;20088;-66
2023/05/10 05:16:17;;;;;;;7.32;4.45;;;;;;;;;;2091588;28;20033;-65
2023/05/10 05:17:36;;;;;;;7.65;4.38;;;;;;;;;;2089901;28;20044;-67
2023/05/10 05:18:56;;;;;;;8.82;4.57;;;;;;;;;;2088259;28;20374;-66
2023/05/10 05:20:15;;;;;;;5.40;3.70;;;;;;;;;;2091728;28;20470;-66
2023/05/10 05:21:34;;;;;;;10.43;4.28;;;;;;;;;;2086687;28;20025;-66
2023/05/10 05:22:53;;;;;;;9.77;4.75;;;;;;;;;;2092039;28;20025;-66
2023/05/10 05:24:12;;;;;;;5.82;3.50;;;;;;;;;;2091209;28;20021;-65
2023/05/10 05:25:31;;;;;;;6.35;4.32;;;;;;;;;;2085490;28;20432;-66
2023/05/10 05:26:50;;;;;;;8.43;3.92;;;;;;;;;;2090291;28;20025;-66
2023/05/10 05:28:09;;;;;;;11.63;3.95;;;;;;;;;;2092155;28;20034;-67
2023/05/10 05:29:28;;;;;;;22.33;4.30;;;;;;;;;;2090871;28;20036;-66
2023/05/10 05:30:47;;;;;;;7.80;3.72;;;;;;;;;;2088615;28;20630;-66
2023/05/10 05:32:08;;;;;;;8.02;3.75;;;;;;;;;;2087430;28;20518;-65
2023/05/10 05:33:26;;;;;;;8.68;4.05;;;;;;;;;;2086112;28;20021;-66
2023/05/10 05:34:46;;;;;;;4.22;3.90;;;;;;;;;;2087510;28;20025;-66
2023/05/10 05:36:05;;;;;;;9.32;3.85;;;;;;;;;;2086974;28;20028;-66
2023/05/10 05:37:25;;;;;;;8.43;4.10;;;;;;;;;;2087531;28;20040;-66
2023/05/10 05:38:43;;;;;;;3.95;3.55;;;;;;;;;;2084879;28;21654;-66
2023/05/10 05:40:03;;;;;;;8.27;4.55;;;;;;;;;;2084069;28;20029;-66
2023/05/10 05:41:22;;;;;;;9.50;4.35;;;;;;;;;;2086139;28;20022;-65
2023/05/10 05:42:41;;;;;;;6.05;3.70;;;;;;;;;;2086355;28;20025;-66
2023/05/10 05:44:00;;;;;;;3.95;3.03;;;;;;;;;;2087936;28;20029;-66
2023/05/10 05:45:18;;;;;;;10.65;4.10;;;;;;;;;;2082314;28;20116;-66
2023/05/10 05:46:37;;;;;;;10.50;3.67;;;;;;;;;;2092767;28;20025;-68
2023/05/10 05:47:56;;;;;;;8.75;3.97;;;;;;;;;;2090621;28;20033;-66
2023/05/10 05:49:16;;;;;;;10.43;4.00;;;;;;;;;;2089678;28;20382;-65
2023/05/10 05:50:35;;;;;;;8.10;4.82;;;;;;;;;;2094176;28;20024;-66
2023/05/10 05:51:54;;;;;;;6.28;3.78;;;;;;;;;;2091620;28;20405;-66
2023/05/10 05:53:13;;;;;;;6.90;3.90;;;;;;;;;;2090152;28;20998;-66
2023/05/10 05:54:32;;;;;;;5.57;3.50;;;;;;;;;;2088788;28;20533;-65
2023/05/10 05:55:55;;;;;;;9.77;3.80;;;;;;;;;;2091772;28;20486;-67
2023/05/10 05:57:14;;;;;;;4.55;3.53;;;;;;;;;;2088906;28;20025;-66
2023/05/10 05:58:33;;;;;;;5.70;3.28;;;;;;;;;;2086184;28;20028;-65
2023/05/10 05:59:52;;;;;;;11.00;4.35;;;;;;;;;;2083971;28;20021;-65
2023/05/10 06:01:11;;;;;;;16.25;4.65;;;;;;;;;;2086661;28;20409;-65
2023/05/10 06:02:29;;;;;;;12.77;4.00;;;;;;;;;;2088490;28;20028;-65
2023/05/10 06:03:49;;;;;;;9.30;3.65;;;;;;;;;;2088959;28;20036;-66
2023/05/10 06:05:08;;;;;;;7.50;3.63;;;;;;;;;;2088247;28;20245;-66
2023/05/10 06:06:28;;;;;;;8.02;3.22;;;;;;;;;;2087131;28;20937;-66
2023/05/10 06:07:47;;;;;;;6.10;3.10;;;;;;;;;;2089635;28;20037;-66
2023/05/10 06:09:06;;;;;;;9.40;3.80;;;;;;;;;;2092235;28;20573;-66
2023/05/10 06:10:25;;;;;;;9.63;3.95;;;;;;;;;;2094660;28;20032;-66
2023/05/10 06:11:44;;;;;;;10.13;3.15;;;;;;;;;;2093221;28;20016;-65
2023/05/10 06:13:03;;;;;;;4.80;3.65;;;;;;;;;;2093569;28;20072;-65
2023/05/10 06:14:22;;;;;;;11.18;3.85;;;;;;;;;;2091964;28;20021;-65
2023/05/10 06:15:40;;;;;;;9.32;3.08;;;;;;;;;;2090762;28;20028;-65
2023/05/10 06:16:59;;;;;;;8.02;3.50;;;;;;;;;;2090833;28;20024;-65
2023/05/10 06:18:18;;;;;;;8.40;3.47;;;;;;;;;;2091294;28;20377;-65
2023/05/10 06:19:37;;;;;;;6.90;3.65;;;;;;;;;;2088958;28;20124;-65
2023/05/10 06:20:56;;;;;;;7.72;3.85;;;;;;;;;;2091275;28;20036;-65
2023/05/10 06:22:15;;;;;;;8.15;3.60;;;;;;;;;;2090471;28;20490;-65
2023/05/10 06:23:34;;;;;;;7.93;3.17;;;;;;;;;;2085890;28;20041;-66
2023/05/10 06:24:53;;;;;;;4.93;3.67;;;;;;;;;;2089600;28;20029;-63
2023/05/10 06:26:12;;;;;;;8.88;3.90;;;;;;;;;;2091559;28;20492;-64
2023/05/10 06:27:31;;;;;;;8.63;3.35;;;;;;;;;;2089637;28;20040;-63
2023/05/10 06:28:50;;;;;;;7.40;3.95;;;;;;;;;;2088621;28;20028;-63
2023/05/10 06:30:10;;;;;;;8.18;3.83;;;;;;;;;;2085684;28;20037;-63
2023/05/10 06:31:29;;;;;;;6.78;3.08;;;;;;;;;;2089212;28;20021;-64
2023/05/10 06:32:48;;;;;;;5.15;3.58;;;;;;;;;;2088404;28;20021;-64
2023/05/10 06:34:08;;;;;;;6.18;3.47;;;;;;;;;;2089173;28;20056;-64
2023/05/10 06:35:27;;;;;;;10.55;3.47;;;;;;;;;;2091160;28;20052;-63
2023/05/10 06:36:46;;;;;;;7.10;3.13;;;;;;;;;;2086791;28;20392;-64
2023/05/10 06:38:05;;;;;;;13.07;3.58;;;;;;;;;;2090437;28;20032;-63
2023/05/10 06:39:24;;;;;;;3.70;3.38;;;;;;;;;;2083153;28;20739;-63
2023/05/10 06:40:43;;;;;;;7.53;3.20;;;;;;;;;;2082329;28;20025;-65
2023/05/10 06:42:02;;;;;;;8.05;3.45;;;;;;;;;;2089722;28;20029;-63
2023/05/10 06:43:21;;;;;;;4.55;3.10;;;;;;;;;;2085177;28;20112;-62
2023/05/10 06:44:40;;;;;;;11.60;3.55;;;;;;;;;;2084660;28;20037;-65
2023/05/10 06:45:59;;;;;;;9.52;3.20;;;;;;;;;;2092268;28;20033;-63
2023/05/10 06:47:18;;;;;;;10.25;3.60;;;;;;;;;;2089519;28;20037;-66
2023/05/10 06:48:37;;;;;;;10.32;3.60;;;;;;;;;;2087670;28;20025;-64
2023/05/10 06:49:56;;;;;;;7.82;3.08;;;;;;;;;;2082526;28;20396;-63
2023/05/10 06:51:15;;;;;;;9.23;3.33;;;;;;;;;;2091849;28;20029;-64
2023/05/10 06:52:34;;;;;;;12.52;3.78;;;;;;;;;;2087356;28;20065;-63
2023/05/10 06:53:53;;;;;;;14.85;4.70;;;;;;;;;;2086885;28;20131;-64
2023/05/10 06:55:12;;;;;;;13.70;4.50;;;;;;;;;;2084982;28;20083;-63
2023/05/10 06:56:31;;;;;;;24.63;6.80;;;;;;;;;;2089061;28;20021;-62
2023/05/10 06:57:50;;;;;;;20.63;6.90;;;;;;;;;;2090573;28;20029;-63
2023/05/10 06:59:09;;;;;;;19.38;4.30;;;;;;;;;;2088197;28;20618;-63
2023/05/10 07:00:28;;;;;;;9.88;4.40;;;;;;;;;;2087721;28;20037;-63
2023/05/10 07:01:47;;;;;;;13.77;5.55;;;;;;;;;;2084404;28;20025;-62
2023/05/10 07:03:06;;;;;;;12.10;3.35;;;;;;;;;;2085608;28;20028;-63
2023/05/10 07:04:25;;;;;;;20.92;6.50;;;;;;;;;;2083560;28;20037;-63
2023/05/10 07:05:44;;;;;;;13.05;5.10;;;;;;;;;;2084725;28;20119;-63
2023/05/10 07:07:03;;;;;;;15.25;3.80;;;;;;;;;;2087256;28;20033;-63
2023/05/10 07:08:22;;;;;;;21.38;7.38;;;;;;;;;;2088482;28;20112;-63
2023/05/10 07:09:41;;;;;;;14.48;5.38;;;;;;;;;;2090810;28;20028;-63
2023/05/10 07:11:03;;;;;;;11.02;3.28;;;;;;;;;;2087269;28;20033;-63
2023/05/10 07:12:22;;;;;;;6.40;3.67;;;;;;;;;;2086493;28;20991;-63
2023/05/10 07:13:43;;;;;;;13.30;3.97;;;;;;;;;;2082644;28;20853;-63
2023/05/10 07:15:02;;;;;;;16.92;3.72;;;;;;;;;;2084737;28;20044;-63
2023/05/10 07:16:22;;;;;;;15.00;4.88;;;;;;;;;;2087999;28;20940;-63
2023/05/10 07:17:40;;;;;;;12.93;4.50;;;;;;;;;;2087838;28;20116;-63
2023/05/10 07:18:59;;;;;;;12.65;4.05;;;;;;;;;;2085134;28;20107;-63
2023/05/10 07:20:18;;;;;;;5.70;3.50;;;;;;;;;;2090209;28;20033;-63
2023/05/10 07:21:37;;;;;;;7.82;4.03;;;;;;;;;;2088360;28;20583;-63
2023/05/10 07:22:56;;;;;;;6.72;4.05;;;;;;;;;;2088312;28;20024;-63
2023/05/10 07:24:15;;;;;;;9.93;3.58;;;;;;;;;;2090706;28;20032;-63
2023/05/10 07:25:34;;;;;;;12.68;4.35;;;;;;;;;;2088973;28;20047;-66
2023/05/10 07:26:53;;;;;;;7.95;3.60;;;;;;;;;;2089156;28;20025;-63
2023/05/10 07:28:13;;;;;;;7.72;3.53;;;;;;;;;;2087054;28;20033;-63
2023/05/10 07:29:32;;;;;;;12.80;3.30;;;;;;;;;;2088057;28;20460;-64
2023/05/10 07:30:51;;;;;;;7.60;3.65;;;;;;;;;;2082642;28;20577;-63
2023/05/10 07:32:10;;;;;;;8.63;3.22;;;;;;;;;;2091174;28;20036;-64
2023/05/10 07:33:29;;;;;;;6.43;3.97;;;;;;;;;;2091231;28;20033;-64
2023/05/10 07:34:48;;;;;;;6.72;3.28;;;;;;;;;;2086140;28;20024;-63
2023/05/10 07:36:07;;;;;;;8.32;3.13;;;;;;;;;;2088813;28;20029;-63
2023/05/10 07:37:26;;;;;;;7.35;3.15;;;;;;;;;;2087614;28;20436;-63
2023/05/10 07:38:45;;;;;;;7.50;3.60;;;;;;;;;;2091353;28;20440;-63
2023/05/10 07:40:04;;;;;;;5.78;3.45;;;;;;;;;;2089489;28;20028;-63
2023/05/10 07:41:23;;;;;;;10.93;3.92;;;;;;;;;;2089156;28;20033;-64
2023/05/10 07:42:42;;;;;;;8.95;3.58;;;;;;;;;;2088187;28;20053;-64
2023/05/10 07:44:01;;;;;;;9.20;4.32;;;;;;;;;;2087783;28;20036;-63
2023/05/10 07:45:20;;;;;;;7.97;3.45;;;;;;;;;;2090822;28;20040;-64
2023/05/10 07:46:39;;;;;;;6.13;3.40;;;;;;;;;;2088709;28;20029;-64
2023/05/10 07:47:58;;;;;;;7.15;2.92;;;;;;;;;;2088313;28;20037;-64
2023/05/10 07:49:17;;;;;;;4.70;3.85;;;;;;;;;;2085925;28;20037;-63
2023/05/10 07:50:36;;;;;;;6.32;2.92;;;;;;;;;;2090776;28;20037;-64
2023/05/10 07:51:55;;;;;;;10.23;4.75;;;;;;;;;;2092737;28;20025;-64
2023/05/10 07:53:14;;;;;;;5.47;3.25;;;;;;;;;;2087624;28;20486;-64
2023/05/10 07:54:33;;;;;;;16.25;3.00;;;;;;;;;;2087955;28;20037;-63
2023/05/10 07:55:54;;;;;;;7.53;3.75;;;;;;;;;;2090817;28;20025;-64